Time;durP1;ratioP1;P1;durP2;ratioP2;P2;SDS_P1;SDS_P2;PMS_P1;PMS_P2;Temp;Humidity;BMP_temperature;BMP_pressure;BME280_temperature;BME280_humidity;BME280_pressure;Samples;Min_cycle;Max_cycle;Signal;HPM_P1;HPM_P2
2021/07/22 00:00:22;;;;;;;10.00;7.35;;;19.90;82.00;;;;;;5093834;28;20103;-71
2021/07/22 00:02:48;;;;;;;10.20;7.70;;;19.80;82.10;;;;;;5092494;28;20100;-71
2021/07/22 00:05:14;;;;;;;9.80;7.45;;;19.90;82.50;;;;;;5093821;28;20461;-71
2021/07/22 00:07:40;;;;;;;9.48;6.78;;;19.80;82.60;;;;;;5093783;28;20122;-71
2021/07/22 00:10:06;;;;;;;9.77;7.57;;;19.80;82.90;;;;;;5092462;28;20115;-71
2021/07/22 00:12:31;;;;;;;11.45;7.53;;;19.70;83.00;;;;;;5093422;28;20096;-71
2021/07/22 00:14:57;;;;;;;11.65;7.70;;;19.70;83.30;;;;;;5093684;28;20058;-71
2021/07/22 00:17:23;;;;;;;10.07;7.68;;;19.70;83.50;;;;;;5093205;28;20469;-71
2021/07/22 00:19:48;;;;;;;11.05;7.22;;;19.70;83.70;;;;;;5093321;28;20032;-71
2021/07/22 00:22:13;;;;;;;8.70;6.65;;;19.60;84.00;;;;;;5093504;28;20035;-71
2021/07/22 00:24:39;;;;;;;7.88;6.43;;;19.60;84.10;;;;;;5093478;28;20020;-71
2021/07/22 00:27:05;;;;;;;10.27;6.93;;;19.50;84.30;;;;;;5093378;28;20542;-71
2021/07/22 00:29:33;;;;;;;9.18;6.35;;;19.40;84.40;;;;;;5093336;28;20035;-71
2021/07/22 00:31:59;;;;;;;9.25;6.95;;;19.40;84.70;;;;;;5093223;28;20107;-71
2021/07/22 00:34:24;;;;;;;10.60;7.20;;;19.40;85.00;;;;;;5093139;28;20104;-71
2021/07/22 00:36:50;;;;;;;9.88;7.47;;;19.30;85.00;;;;;;5093287;28;20419;-71
2021/07/22 00:39:17;;;;;;;9.40;7.05;;;19.30;85.20;;;;;;5077198;28;20016;-71
2021/07/22 00:41:43;;;;;;;9.95;7.30;;;19.20;85.40;;;;;;5071328;28;20058;-71
2021/07/22 00:44:09;;;;;;;10.15;7.72;;;19.20;85.70;;;;;;5072878;28;20108;-71
2021/07/22 00:46:34;;;;;;;11.32;7.10;;;19.20;85.60;;;;;;5072935;28;20040;-71
2021/07/22 00:49:00;;;;;;;10.20;7.63;;;19.20;85.90;;;;;;5072745;28;20028;-71
2021/07/22 00:51:25;;;;;;;9.57;7.35;;;19.10;86.10;;;;;;5074279;28;20028;-71
2021/07/22 00:53:51;;;;;;;11.75;8.27;;;19.10;86.30;;;;;;5091665;28;20027;-71
2021/07/22 00:56:16;;;;;;;10.68;7.90;;;19.10;86.40;;;;;;5083467;28;20035;-71
2021/07/22 00:58:42;;;;;;;9.95;7.03;;;19.10;86.60;;;;;;5071609;28;20035;-71
2021/07/22 01:01:07;;;;;;;10.52;7.20;;;19.00;86.70;;;;;;5077954;28;20028;-71
2021/07/22 01:03:35;;;;;;;9.93;7.60;;;19.00;87.00;;;;;;5092788;28;20105;-71
2021/07/22 01:06:01;;;;;;;8.55;6.55;;;19.00;87.10;;;;;;5079620;28;20070;-71
2021/07/22 01:08:26;;;;;;;9.05;6.53;;;18.90;87.30;;;;;;5072682;28;20474;-71
2021/07/22 01:10:52;;;;;;;9.63;6.38;;;18.90;87.60;;;;;;5072461;28;20063;-71
2021/07/22 01:13:17;;;;;;;7.82;5.88;;;18.80;87.70;;;;;;5073852;28;20029;-71
2021/07/22 01:15:43;;;;;;;7.50;6.10;;;18.80;87.90;;;;;;5092838;28;20074;-71
2021/07/22 01:18:08;;;;;;;7.35;6.13;;;18.70;88.00;;;;;;5092743;28;20028;-71
2021/07/22 01:20:34;;;;;;;10.95;6.97;;;18.70;88.10;;;;;;5092537;28;20512;-71
2021/07/22 01:23:00;;;;;;;9.73;6.80;;;18.60;88.20;;;;;;5092606;28;20104;-71
2021/07/22 01:25:26;;;;;;;9.02;6.53;;;18.60;88.40;;;;;;5092651;28;20396;-71
2021/07/22 01:27:52;;;;;;;7.90;6.60;;;18.60;88.50;;;;;;5093290;28;20050;-71
2021/07/22 01:30:18;;;;;;;10.32;7.00;;;18.50;88.70;;;;;;5095991;28;20064;-71
2021/07/22 01:32:44;;;;;;;9.18;6.93;;;18.50;89.00;;;;;;5076316;28;20070;-71
2021/07/22 01:35:11;;;;;;;9.65;6.90;;;18.40;89.10;;;;;;5076340;28;20074;-71
2021/07/22 01:37:41;;;;;;;8.98;6.53;;;18.40;89.90;;;;;;5076414;28;20119;-71
2021/07/22 01:40:08;;;;;;;10.43;7.28;;;18.40;89.50;;;;;;5076057;28;20080;-71
2021/07/22 01:42:33;;;;;;;9.27;6.68;;;18.30;89.50;;;;;;5075016;28;20554;-71
2021/07/22 01:44:59;;;;;;;8.27;5.70;;;18.30;90.10;;;;;;5076208;28;20112;-71
2021/07/22 01:47:24;;;;;;;6.60;5.25;;;18.20;90.00;;;;;;5076249;28;20025;-71
2021/07/22 01:49:51;;;;;;;7.10;5.45;;;18.20;90.10;;;;;;5076163;28;20028;-71
2021/07/22 01:52:16;;;;;;;9.48;6.68;;;18.20;90.20;;;;;;5083207;28;20546;-71
2021/07/22 01:54:42;;;;;;;8.63;6.35;;;18.20;90.20;;;;;;5096214;28;20032;-71
2021/07/22 01:57:07;;;;;;;10.07;6.80;;;18.10;90.30;;;;;;5096396;28;20085;-71
2021/07/22 01:59:35;;;;;;;12.88;8.00;;;18.10;90.40;;;;;;5096274;28;20039;-71
2021/07/22 02:02:05;;;;;;;8.75;6.63;;;18.10;90.50;;;;;;5096115;28;20023;-71
2021/07/22 02:04:32;;;;;;;9.40;6.45;;;18.10;90.60;;;;;;5096090;28;20012;-71
2021/07/22 02:06:57;;;;;;;12.23;6.93;;;18.10;90.60;;;;;;5095902;28;20154;-71
2021/07/22 02:09:23;;;;;;;9.70;6.53;;;18.00;90.70;;;;;;5094829;28;20062;-71
2021/07/22 02:11:49;;;;;;;11.13;6.85;;;18.00;90.70;;;;;;5095911;28;20024;-71
2021/07/22 02:14:15;;;;;;;11.02;7.00;;;18.00;90.80;;;;;;5095959;28;20517;-71
2021/07/22 02:16:41;;;;;;;9.65;6.75;;;18.00;90.80;;;;;;5096000;28;20020;-71
2021/07/22 02:19:06;;;;;;;9.27;6.78;;;17.90;90.80;;;;;;5095922;28;20110;-71
2021/07/22 02:21:32;;;;;;;10.55;7.47;;;17.90;90.90;;;;;;5095535;28;20028;-71
2021/07/22 02:23:57;;;;;;;11.38;7.10;;;17.90;91.00;;;;;;5095647;28;20415;-71
2021/07/22 02:26:23;;;;;;;9.48;7.05;;;17.90;91.00;;;;;;5094529;28;20118;-72
2021/07/22 02:28:51;;;;;;;10.00;7.57;;;17.90;91.10;;;;;;5095713;28;20567;-71
2021/07/22 02:31:16;;;;;;;8.70;6.82;;;17.90;91.10;;;;;;5095791;28;20048;-71
2021/07/22 02:33:42;;;;;;;8.35;6.78;;;17.80;91.20;;;;;;5094242;28;20062;-71
2021/07/22 02:36:08;;;;;;;10.18;6.93;;;17.80;91.20;;;;;;5095535;28;20051;-71
2021/07/22 02:38:33;;;;;;;10.80;7.57;;;17.80;91.30;;;;;;5095350;28;20063;-71
2021/07/22 02:40:59;;;;;;;12.02;7.25;;;17.80;91.40;;;;;;5093860;28;20048;-71
2021/07/22 02:43:25;;;;;;;10.15;6.40;;;17.80;91.40;;;;;;5094089;28;20023;-71
2021/07/22 02:45:50;;;;;;;7.78;5.90;;;17.70;91.50;;;;;;5094104;28;20070;-71
2021/07/22 02:48:16;;;;;;;9.40;6.97;;;17.70;91.60;;;;;;5095333;28;20031;-71
2021/07/22 02:50:42;;;;;;;9.70;7.03;;;17.70;91.60;;;;;;5095285;28;20024;-71
2021/07/22 02:53:08;;;;;;;10.63;7.03;;;17.70;91.70;;;;;;5079147;28;20020;-71
2021/07/22 02:55:33;;;;;;;11.88;7.20;;;17.60;91.70;;;;;;5075115;28;20082;-71
2021/07/22 02:58:06;;;;;;;9.25;6.45;;;17.60;91.70;;;;;;5074863;28;20036;-71
2021/07/22 03:00:32;;;;;;;12.88;8.60;;;17.60;91.80;;;;;;5073590;28;20547;-71
2021/07/22 03:03:01;;;;;;;11.63;8.00;;;17.60;92.00;;;;;;5074587;28;20028;-71
2021/07/22 03:05:29;;;;;;;11.18;7.95;;;17.60;92.10;;;;;;5084089;28;20099;-71
2021/07/22 03:07:55;;;;;;;11.40;7.53;;;17.60;92.10;;;;;;5094757;28;20039;-71
2021/07/22 03:10:24;;;;;;;13.73;8.18;;;17.60;92.20;;;;;;5093691;28;20439;-71
2021/07/22 03:12:52;;;;;;;12.32;8.13;;;17.60;92.30;;;;;;5094786;28;20089;-71
2021/07/22 03:15:17;;;;;;;11.02;7.78;;;17.50;92.40;;;;;;5093538;28;20028;-71
2021/07/22 03:17:43;;;;;;;11.52;8.43;;;17.60;92.50;;;;;;5093454;28;20020;-71
2021/07/22 03:20:09;;;;;;;12.18;8.98;;;17.60;92.60;;;;;;5094647;28;20052;-71
2021/07/22 03:22:34;;;;;;;13.23;8.30;;;17.60;92.70;;;;;;5094577;28;20055;-71
2021/07/22 03:25:00;;;;;;;13.60;8.90;;;17.60;92.70;;;;;;5094489;28;20028;-71
2021/07/22 03:27:25;;;;;;;14.52;8.90;;;17.50;92.80;;;;;;5093403;28;20018;-71
2021/07/22 03:29:50;;;;;;;12.70;8.45;;;17.50;92.90;;;;;;5093207;28;20443;-71
2021/07/22 03:32:16;;;;;;;9.63;7.40;;;17.50;92.90;;;;;;5093202;28;20020;-71
2021/07/22 03:34:41;;;;;;;13.85;8.95;;;17.50;93.00;;;;;;5094254;28;20114;-71
2021/07/22 03:37:07;;;;;;;13.57;8.80;;;17.50;93.10;;;;;;5094395;28;20508;-71
2021/07/22 03:39:32;;;;;;;13.40;9.02;;;17.50;93.20;;;;;;5094207;28;20074;-71
2021/07/22 03:41:58;;;;;;;13.57;8.57;;;17.50;93.20;;;;;;5092829;28;20090;-71
2021/07/22 03:44:23;;;;;;;14.27;8.88;;;17.50;93.30;;;;;;5092949;28;20017;-71
2021/07/22 03:46:49;;;;;;;11.15;7.85;;;17.50;93.40;;;;;;5092902;28;20391;-71
2021/07/22 03:49:14;;;;;;;12.10;8.32;;;17.50;93.40;;;;;;5094053;28;20103;-71
2021/07/22 03:51:40;;;;;;;12.00;8.35;;;17.50;93.50;;;;;;5089766;28;20048;-71
2021/07/22 03:54:05;;;;;;;12.73;8.48;;;17.50;93.50;;;;;;5072093;28;20028;-71
2021/07/22 03:56:34;;;;;;;13.30;8.30;;;17.50;93.50;;;;;;5073806;28;20024;-71
2021/07/22 03:59:00;;;;;;;10.17;7.47;;;17.50;93.60;;;;;;5073745;28;20035;-71
2021/07/22 04:04:15;;;;;;;13.85;8.25;;;17.40;93.70;;;;;;5061654;28;20056;-71
2021/07/22 04:06:41;;;;;;;11.85;8.15;;;17.40;93.80;;;;;;5090858;28;20059;-71
2021/07/22 04:09:07;;;;;;;13.43;9.05;;;17.30;93.90;;;;;;5093567;28;20091;-71
2021/07/22 04:11:35;;;;;;;11.38;8.48;;;17.30;94.00;;;;;;5092471;28;20039;-71
2021/07/22 04:14:01;;;;;;;12.30;8.35;;;17.30;94.00;;;;;;5093554;28;20145;-71
2021/07/22 04:16:26;;;;;;;10.75;8.02;;;17.30;94.10;;;;;;5093556;28;20465;-71
2021/07/22 04:18:52;;;;;;;12.05;8.05;;;17.30;94.20;;;;;;5092245;28;20038;-71
2021/07/22 04:21:31;;;;;;;11.65;8.95;;;17.20;94.20;;;;;;5092060;28;20077;-71
2021/07/22 04:23:57;;;;;;;14.57;9.10;;;17.30;94.30;;;;;;5070860;28;20048;-71
2021/07/22 04:26:23;;;;;;;13.88;8.70;;;17.30;94.40;;;;;;5072320;28;20074;-71
2021/07/22 04:28:50;;;;;;;14.73;8.27;;;17.30;94.40;;;;;;5072555;28;20016;-71
2021/07/22 04:31:16;;;;;;;10.88;8.60;;;17.30;94.50;;;;;;5073211;28;20036;-71
2021/07/22 04:33:42;;;;;;;9.38;7.05;;;17.30;94.60;;;;;;5073190;28;20047;-71
2021/07/22 04:36:08;;;;;;;12.10;7.75;;;17.30;94.60;;;;;;5071732;28;20020;-71
2021/07/22 04:38:39;;;;;;;11.95;8.68;;;17.30;94.60;;;;;;5071884;28;20509;-71
2021/07/22 04:41:05;;;;;;;12.27;8.48;;;17.30;94.70;;;;;;5072468;28;20052;-71
2021/07/22 04:43:31;;;;;;;11.13;8.02;;;17.30;94.70;;;;;;5073122;28;20024;-71
2021/07/22 04:46:01;;;;;;;12.25;9.25;;;17.30;94.80;;;;;;5071558;28;20021;-71
2021/07/22 04:48:27;;;;;;;;;;;17.30;94.80;;;;;;5072063;28;20061;-71
2021/07/22 04:50:52;;;;;;;11.18;7.80;;;17.20;94.80;;;;;;5072950;28;19943;-71
2021/07/22 04:53:17;;;;;;;12.73;8.88;;;17.20;95.00;;;;;;5089871;28;20113;-71
2021/07/22 04:56:09;;;;;;;13.50;8.85;;;17.20;95.00;;;;;;5091333;28;20495;-71
2021/07/22 04:58:34;;;;;;;12.38;8.68;;;17.30;94.90;;;;;;5087561;28;20186;-71
2021/07/22 05:01:02;;;;;;;11.45;8.23;;;17.20;95.10;;;;;;5092643;28;20119;-72
2021/07/22 05:03:28;;;;;;;13.00;9.20;;;17.30;95.10;;;;;;5092653;28;20028;-71
2021/07/22 05:05:53;;;;;;;13.48;8.85;;;17.30;95.10;;;;;;5079723;28;20090;-71
2021/07/22 05:08:19;;;;;;;15.18;9.45;;;17.30;95.20;;;;;;5071284;28;20020;-71
2021/07/22 05:10:54;;;;;;;14.18;10.15;;;17.30;95.20;;;;;;5072633;28;20035;-71
2021/07/22 05:13:38;;;;;;;;;;;;;;;;;;;;;
2021/07/22 05:16:05;;;;;;;12.70;9.73;;;17.40;95.30;;;;;;5072464;28;20035;-71
2021/07/22 05:18:30;;;;;;;14.07;9.10;;;17.40;95.40;;;;;;5072596;28;20036;-71
2021/07/22 05:20:56;;;;;;;13.75;9.18;;;17.40;95.40;;;;;;5072364;28;20029;-71
2021/07/22 05:23:21;;;;;;;12.65;9.00;;;17.40;95.40;;;;;;5071231;28;20388;-71
2021/07/22 05:25:47;;;;;;;12.20;8.57;;;17.50;95.50;;;;;;5071072;28;20029;-71
2021/07/22 05:28:12;;;;;;;12.73;8.77;;;17.50;95.40;;;;;;5072556;28;20021;-71
2021/07/22 05:30:38;;;;;;;13.15;9.63;;;17.50;95.40;;;;;;5072513;28;20037;-71
2021/07/22 05:33:05;;;;;;;11.98;8.35;;;17.60;95.50;;;;;;5072329;28;20068;-71
2021/07/22 05:35:32;;;;;;;13.00;9.30;;;17.60;95.50;;;;;;5072184;28;20085;-71
2021/07/22 05:37:57;;;;;;;14.10;8.43;;;17.60;95.50;;;;;;5072364;28;20078;-70
2021/07/22 05:40:23;;;;;;;12.05;8.48;;;17.70;95.50;;;;;;5071841;28;20048;-71
2021/07/22 05:42:49;;;;;;;14.25;8.63;;;17.70;95.50;;;;;;5072396;28;20389;-70
2021/07/22 05:45:16;;;;;;;13.13;9.13;;;17.70;95.50;;;;;;5072474;28;20055;-71
2021/07/22 05:47:42;;;;;;;13.45;9.02;;;17.80;95.50;;;;;;5072233;28;20440;-71
2021/07/22 05:50:08;;;;;;;14.07;9.52;;;17.80;95.60;;;;;;5070819;28;20024;-71
2021/07/22 05:52:33;;;;;;;13.20;8.52;;;17.80;95.60;;;;;;5083009;28;20020;-71
2021/07/22 05:54:59;;;;;;;9.80;8.32;;;17.80;95.60;;;;;;5091026;28;20039;-71
2021/07/22 05:57:25;;;;;;;14.65;10.07;;;17.90;95.70;;;;;;5090915;28;20123;-71
2021/07/22 05:59:50;;;;;;;12.70;9.18;;;17.90;95.80;;;;;;5092333;28;20069;-71
2021/07/22 06:02:16;;;;;;;13.20;9.38;;;17.90;95.80;;;;;;5092449;28;20024;-71
2021/07/22 06:04:41;;;;;;;12.57;9.23;;;17.90;95.80;;;;;;5089179;28;20046;-70
2021/07/22 06:07:07;;;;;;;15.60;11.07;;;18.00;95.80;;;;;;5072072;28;20501;-71
2021/07/22 06:09:32;;;;;;;14.55;10.57;;;18.00;95.80;;;;;;5072007;28;20040;-71
2021/07/22 06:12:32;;;;;;;;;;;;;;;;;;;;;
2021/07/22 06:14:58;;;;;;;15.65;11.27;;;18.00;95.80;;;;;;5073974;28;20035;-71
2021/07/22 06:17:24;;;;;;;15.13;11.52;;;18.10;96.00;;;;;;5075517;28;20448;-71
2021/07/22 06:19:49;;;;;;;15.60;11.32;;;18.00;95.90;;;;;;5074157;28;20029;-70
2021/07/22 06:22:14;;;;;;;14.82;11.18;;;18.10;96.00;;;;;;5075275;28;20028;-71
2021/07/22 06:24:40;;;;;;;13.75;10.32;;;18.10;96.40;;;;;;5076663;28;20371;-70
2021/07/22 06:27:11;;;;;;;13.57;9.98;;;18.20;96.10;;;;;;5077031;28;20024;-70
2021/07/22 06:29:39;;;;;;;14.68;10.73;;;18.20;96.00;;;;;;5074700;28;20013;-70
2021/07/22 06:32:05;;;;;;;16.10;10.82;;;18.30;96.00;;;;;;5087620;28;20032;-70
2021/07/22 06:34:53;;;;;;;13.32;9.93;;;18.30;96.00;;;;;;5080895;28;20028;-70
2021/07/22 06:37:19;;;;;;;12.77;9.32;;;18.40;95.90;;;;;;5074537;28;20032;-70
2021/07/22 06:39:50;;;;;;;13.57;9.25;;;18.30;95.90;;;;;;5079387;28;20039;-70
2021/07/22 06:42:15;;;;;;;13.45;11.07;;;18.40;96.20;;;;;;5087433;28;20095;-71
2021/07/22 06:44:41;;;;;;;14.82;11.40;;;18.40;95.90;;;;;;5074781;28;20497;-71
2021/07/22 06:47:06;;;;;;;20.65;11.88;;;18.50;95.90;;;;;;5077236;28;20563;-71
2021/07/22 06:49:32;;;;;;;11.52;9.73;;;18.60;95.80;;;;;;5074352;28;20053;-70
2021/07/22 06:51:59;;;;;;;13.20;9.77;;;18.60;95.70;;;;;;5087827;28;20477;-69
2021/07/22 06:54:25;;;;;;;12.93;9.85;;;18.70;95.60;;;;;;5093238;28;20034;-69
2021/07/22 06:56:50;;;;;;;12.40;9.88;;;18.70;95.60;;;;;;5073615;28;20028;-70
2021/07/22 06:59:16;;;;;;;14.18;11.45;;;18.70;95.50;;;;;;5075010;28;20028;-69
2021/07/22 07:01:41;;;;;;;15.95;12.10;;;18.80;95.50;;;;;;5073469;28;20025;-69
2021/07/22 07:04:07;;;;;;;13.30;10.27;;;18.80;95.50;;;;;;5073552;28;20034;-69
2021/07/22 07:06:34;;;;;;;11.60;9.57;;;18.90;95.50;;;;;;5074471;28;20032;-70
2021/07/22 07:09:00;;;;;;;12.27;9.18;;;18.90;95.40;;;;;;5092750;28;20388;-69
2021/07/22 07:11:25;;;;;;;14.00;10.57;;;19.00;95.30;;;;;;5074552;28;20037;-69
2021/07/22 07:13:51;;;;;;;14.13;10.32;;;19.00;95.30;;;;;;5092922;28;20024;-69
2021/07/22 07:16:16;;;;;;;14.38;10.27;;;19.10;95.30;;;;;;5094489;28;20059;-69
2021/07/22 07:18:42;;;;;;;14.90;11.80;;;19.10;95.20;;;;;;5089089;28;20020;-69
2021/07/22 07:21:07;;;;;;;14.20;11.73;;;19.20;95.20;;;;;;5094568;28;20043;-69
2021/07/22 07:24:13;;;;;;;17.63;11.60;;;19.20;95.10;;;;;;5094735;28;20021;-69
2021/07/22 07:26:39;;;;;;;16.05;10.60;;;19.30;95.00;;;;;;5069983;28;20036;-69
2021/07/22 07:29:04;;;;;;;17.25;10.05;;;19.40;95.00;;;;;;5074208;28;20394;-69
2021/07/22 07:31:29;;;;;;;15.63;10.27;;;19.40;94.90;;;;;;5074159;28;20032;-69
2021/07/22 07:33:55;;;;;;;15.68;10.60;;;19.50;94.80;;;;;;5072877;28;20089;-69
2021/07/22 07:36:20;;;;;;;13.73;9.68;;;19.60;94.70;;;;;;5073797;28;20033;-69
2021/07/22 07:38:46;;;;;;;11.55;9.07;;;19.70;94.60;;;;;;5073996;28;20024;-71
2021/07/22 07:41:11;;;;;;;13.15;9.60;;;19.80;94.50;;;;;;5086339;28;20032;-70
2021/07/22 07:43:37;;;;;;;13.88;10.07;;;19.90;94.40;;;;;;5086224;28;20035;-71
2021/07/22 07:46:05;;;;;;;13.02;10.15;;;19.90;94.20;;;;;;5092838;28;20020;-71
2021/07/22 07:48:38;;;;;;;13.32;11.02;;;20.00;94.00;;;;;;5077851;28;20028;-71
2021/07/22 07:51:08;;;;;;;14.38;10.23;;;20.10;93.70;;;;;;5091754;28;20032;-70
2021/07/22 07:53:34;;;;;;;13.00;9.32;;;20.10;93.60;;;;;;5073319;28;20028;-71
2021/07/22 07:55:59;;;;;;;9.50;8.23;;;20.30;93.60;;;;;;5073621;28;20032;-71
2021/07/22 07:58:48;;;;;;;10.95;8.85;;;20.40;93.40;;;;;;5074885;28;20119;-71
2021/07/22 08:01:14;;;;;;;12.55;9.52;;;20.60;93.20;;;;;;5074951;28;20017;-71
2021/07/22 08:03:40;;;;;;;10.60;8.93;;;20.70;93.10;;;;;;5073584;28;20119;-71
2021/07/22 08:06:05;;;;;;;16.30;10.90;;;20.90;92.90;;;;;;5074781;28;20020;-70
2021/07/22 08:08:31;;;;;;;11.65;9.25;;;21.00;92.60;;;;;;5069590;28;20436;-70
2021/07/22 08:10:59;;;;;;;11.57;8.43;;;21.20;92.40;;;;;;5071700;28;20115;-70
2021/07/22 08:13:41;;;;;;;10.77;7.60;;;21.30;92.20;;;;;;5072533;28;20017;-70
2021/07/22 08:16:06;;;;;;;8.65;6.75;;;21.50;91.90;;;;;;5072097;28;20461;-70
2021/07/22 08:18:32;;;;;;;7.63;6.60;;;21.50;91.80;;;;;;5074014;28;20023;-71
2021/07/22 08:20:57;;;;;;;11.55;7.90;;;21.60;91.70;;;;;;5083972;28;20024;-72
2021/07/22 08:23:33;;;;;;;9.70;7.75;;;21.70;91.50;;;;;;5081813;28;20499;-71
2021/07/22 08:25:58;;;;;;;9.70;8.13;;;21.70;91.20;;;;;;5075324;28;20078;-71
2021/07/22 08:28:42;;;;;;;10.23;7.25;;;21.70;91.00;;;;;;5070771;28;20025;-71
2021/07/22 08:31:07;;;;;;;8.88;7.13;;;21.70;90.90;;;;;;5075470;28;20028;-71
2021/07/22 08:33:33;;;;;;;8.95;7.13;;;21.70;90.90;;;;;;5078356;28;20496;-71
2021/07/22 08:35:59;;;;;;;10.05;7.47;;;21.80;90.90;;;;;;5073250;28;20024;-71
2021/07/22 08:38:24;;;;;;;6.80;5.97;;;21.80;90.70;;;;;;5071862;28;20478;-71
2021/07/22 08:40:50;;;;;;;7.63;6.28;;;21.90;90.50;;;;;;5071818;28;20072;-71
2021/07/22 08:43:15;;;;;;;9.00;6.38;;;22.00;90.40;;;;;;5071411;28;20070;-71
2021/07/22 08:45:41;;;;;;;8.00;5.70;;;22.00;90.20;;;;;;5070842;28;20069;-71
2021/07/22 08:48:07;;;;;;;7.63;5.68;;;22.10;90.20;;;;;;5074892;28;20020;-71
2021/07/22 08:50:32;;;;;;;11.02;7.72;;;22.30;90.10;;;;;;5072161;28;20571;-71
2021/07/22 08:52:58;;;;;;;7.85;6.60;;;22.40;89.20;;;;;;5071860;28;20500;-71
2021/07/22 08:55:31;;;;;;;10.23;7.00;;;22.50;88.80;;;;;;5074671;28;20153;-70
2021/07/22 08:57:57;;;;;;;9.65;6.88;;;22.70;88.20;;;;;;5071922;28;20082;-71
2021/07/22 09:00:23;;;;;;;12.43;7.07;;;22.70;87.70;;;;;;5076981;28;20028;-71
2021/07/22 09:02:50;;;;;;;8.20;6.20;;;22.80;87.30;;;;;;5075822;28;20019;-71
2021/07/22 09:05:16;;;;;;;7.78;5.63;;;22.80;86.80;;;;;;5072141;28;20020;-71
2021/07/22 09:07:42;;;;;;;6.75;5.43;;;22.80;86.40;;;;;;5073560;28;20044;-71
2021/07/22 09:10:07;;;;;;;6.57;5.68;;;22.80;85.90;;;;;;5071740;28;20487;-71
2021/07/22 09:12:42;;;;;;;6.40;5.22;;;22.80;85.70;;;;;;5073242;28;20078;-71
2021/07/22 09:15:11;;;;;;;6.35;4.68;;;22.90;85.40;;;;;;5059930;28;20024;-71
2021/07/22 09:17:37;;;;;;;5.93;4.87;;;22.90;84.70;;;;;;5055869;28;20041;-71
2021/07/22 09:20:04;;;;;;;6.18;4.70;;;22.90;84.50;;;;;;5054679;28;20286;-71
2021/07/22 09:22:36;;;;;;;7.47;4.93;;;23.10;83.90;;;;;;5072964;28;20035;-71
2021/07/22 09:25:03;;;;;;;8.00;5.50;;;23.10;82.80;;;;;;5070467;28;20024;-71
2021/07/22 09:27:32;;;;;;;7.88;5.35;;;23.10;82.70;;;;;;5071743;28;20474;-71
2021/07/22 09:29:59;;;;;;;8.77;5.32;;;23.20;82.00;;;;;;5073141;28;20048;-71
2021/07/22 09:32:32;;;;;;;6.80;5.40;;;23.20;81.70;;;;;;5071334;28;20021;-71
2021/07/22 09:35:11;;;;;;;5.93;4.93;;;23.30;81.40;;;;;;5072848;28;20036;-71
2021/07/22 09:37:58;;;;;;;8.68;5.47;;;23.40;81.00;;;;;;5074248;28;20035;-71
2021/07/22 09:40:28;;;;;;;8.35;5.93;;;23.40;80.50;;;;;;5071858;28;20049;-71
2021/07/22 09:42:56;;;;;;;6.30;5.30;;;23.50;80.20;;;;;;5075847;28;20507;-71
2021/07/22 09:45:24;;;;;;;8.65;5.28;;;23.70;79.90;;;;;;5070943;28;20020;-71
2021/07/22 09:47:51;;;;;;;6.07;4.43;;;23.90;79.30;;;;;;5071380;28;20419;-71
2021/07/22 09:50:19;;;;;;;6.35;5.18;;;24.20;78.60;;;;;;5074845;28;20440;-71
2021/07/22 09:52:46;;;;;;;6.85;5.32;;;24.40;77.90;;;;;;5075577;28;20039;-71
2021/07/22 09:55:31;;;;;;;5.20;4.68;;;24.60;77.10;;;;;;5075266;28;20043;-71
2021/07/22 09:57:59;;;;;;;7.18;4.80;;;24.80;76.70;;;;;;5077945;28;20382;-71
2021/07/22 10:00:26;;;;;;;7.35;4.95;;;24.90;75.80;;;;;;5077704;28;20136;-71
2021/07/22 10:06:05;;;;;;;5.38;4.45;;;25.20;75.00;;;;;;5077602;28;20079;-71
2021/07/22 10:08:32;;;;;;;5.35;4.70;;;25.30;74.60;;;;;;5080333;28;20122;-72
2021/07/22 10:10:59;;;;;;;6.07;5.47;;;25.50;74.00;;;;;;5078936;28;20020;-71
2021/07/22 10:13:39;;;;;;;5.30;4.53;;;25.60;73.30;;;;;;5075374;28;20028;-72
2021/07/22 10:16:59;;;;;;;8.13;4.40;;;25.70;72.60;;;;;;5082139;28;20028;-72
2021/07/22 10:19:25;;;;;;;6.82;4.50;;;26.00;72.20;;;;;;5092259;28;20028;-72
2021/07/22 10:21:51;;;;;;;6.90;5.00;;;26.10;71.50;;;;;;5090213;28;20025;-72
2021/07/22 10:24:18;;;;;;;6.05;4.70;;;26.20;70.50;;;;;;5085030;28;20074;-72
2021/07/22 10:26:45;;;;;;;9.23;4.90;;;26.30;69.90;;;;;;5083290;28;20020;-72
2021/07/22 10:29:11;;;;;;;4.90;3.97;;;26.40;69.20;;;;;;5093644;28;20020;-74
2021/07/22 10:31:40;;;;;;;5.90;4.47;;;26.50;68.70;;;;;;5094797;28;20016;-74
2021/07/22 10:34:15;;;;;;;;;;;26.50;68.00;;;;;;5095528;28;20028;-74
2021/07/22 10:36:43;;;;;;;4.78;3.97;;;26.50;68.50;;;;;;5080316;28;19904;-75
2021/07/22 10:39:47;;;;;;;7.15;4.07;;;26.50;67.80;;;;;;5075203;28;20032;-73
2021/07/22 10:42:37;;;;;;;5.78;4.93;;;26.80;67.50;;;;;;5078582;28;20044;-74
2021/07/22 10:45:28;;;;;;;6.18;4.07;;;26.80;66.10;;;;;;5072568;28;20051;-73
2021/07/22 10:48:04;;;;;;;4.88;4.38;;;26.90;66.00;;;;;;5074199;28;20024;-74
2021/07/22 10:50:54;;;;;;;5.60;4.50;;;27.00;65.40;;;;;;5074364;28;20478;-73
2021/07/22 10:53:35;;;;;;;7.18;4.88;;;27.20;64.60;;;;;;5076311;28;20025;-72
2021/07/22 10:56:01;;;;;;;8.52;5.40;;;27.20;63.70;;;;;;5074882;28;20021;-72
2021/07/22 10:58:30;;;;;;;4.68;3.83;;;27.10;63.50;;;;;;5072938;28;20032;-72
2021/07/22 11:00:56;;;;;;;4.05;3.65;;;27.20;63.60;;;;;;5074714;28;20074;-72
2021/07/22 11:06:06;;;;;;;6.05;5.07;;;27.30;63.50;;;;;;5088745;28;20029;-72
2021/07/22 11:08:33;;;;;;;6.03;4.57;;;27.10;62.70;;;;;;5095141;28;20385;-72
2021/07/22 11:11:07;;;;;;;7.28;4.22;;;27.00;62.70;;;;;;5094833;28;20062;-72
2021/07/22 11:13:53;;;;;;;4.93;4.18;;;27.00;62.80;;;;;;5093772;28;20024;-72
2021/07/22 11:16:26;;;;;;;4.32;3.50;;;27.20;62.90;;;;;;5093519;28;20408;-72
2021/07/22 11:18:53;;;;;;;4.00;3.05;;;27.40;62.80;;;;;;5094113;28;20017;-73
2021/07/22 11:21:29;;;;;;;5.93;3.97;;;27.60;62.50;;;;;;5075736;28;20029;-74
2021/07/22 11:24:00;;;;;;;4.78;3.97;;;27.90;61.60;;;;;;5070893;28;20150;-73
2021/07/22 11:26:35;;;;;;;4.13;3.72;;;28.00;61.30;;;;;;5073072;28;20495;-74
2021/07/22 11:29:07;;;;;;;4.03;3.63;;;28.10;60.70;;;;;;5073139;28;20021;-73
2021/07/22 11:31:39;;;;;;;5.55;3.90;;;28.10;60.40;;;;;;5072881;28;20043;-75
2021/07/22 11:34:04;;;;;;;5.18;4.55;;;28.20;60.00;;;;;;5073944;28;20052;-74
2021/07/22 11:36:31;;;;;;;4.15;3.70;;;28.30;59.60;;;;;;5074090;28;20126;-73
2021/07/22 11:39:08;;;;;;;4.70;3.90;;;28.40;59.50;;;;;;5077365;28;20028;-74
2021/07/22 11:42:00;;;;;;;6.00;4.25;;;28.60;59.30;;;;;;5083106;28;20084;-74
2021/07/22 11:44:33;;;;;;;5.47;3.97;;;28.50;58.70;;;;;;5094025;28;20370;-74
2021/07/22 11:47:53;;;;;;;4.93;3.83;;;28.50;58.80;;;;;;5093459;28;20032;-74
2021/07/22 11:49:58;;;;;;;;;;;28.60;58.20;;;;;;5091038;28;20036;-74
2021/07/22 11:52:32;;;;;;;4.95;4.40;;;28.70;58.50;;;;;;5093307;28;19908;-74
2021/07/22 11:55:08;;;;;;;5.78;4.20;;;28.90;58.30;;;;;;5093958;28;20485;-74
2021/07/22 11:57:38;;;;;;;4.85;4.35;;;29.00;57.70;;;;;;5094004;28;20028;-74
2021/07/22 12:00:17;;;;;;;4.25;3.83;;;28.90;57.40;;;;;;5093819;28;20153;-73
2021/07/22 12:02:48;;;;;;;;;;;28.80;57.00;;;;;;5093668;28;20133;-74
2021/07/22 12:05:22;;;;;;;4.18;3.78;;;28.60;57.50;;;;;;5085592;28;19904;-74
2021/07/22 12:07:48;;;;;;;3.88;3.42;;;28.60;57.50;;;;;;5073298;28;20095;-75
2021/07/22 12:10:23;;;;;;;3.95;3.55;;;28.60;57.60;;;;;;5072078;28;20505;-74
2021/07/22 12:12:57;;;;;;;3.40;3.10;;;28.60;57.50;;;;;;5072929;28;20082;-74
2021/07/22 12:15:32;;;;;;;4.25;3.47;;;28.80;57.30;;;;;;5073314;28;20031;-74
2021/07/22 12:17:58;;;;;;;4.63;3.92;;;29.00;57.00;;;;;;5072477;28;20428;-75
2021/07/22 12:20:24;;;;;;;5.30;4.10;;;29.20;56.50;;;;;;5071650;28;20025;-75
2021/07/22 12:22:49;;;;;;;5.13;4.10;;;29.20;55.60;;;;;;5079732;28;20409;-75
2021/07/22 12:25:18;;;;;;;4.05;3.65;;;29.30;55.90;;;;;;5091782;28;20111;-75
2021/07/22 12:27:54;;;;;;;4.72;3.80;;;29.40;55.40;;;;;;5093377;28;20032;-75
2021/07/22 12:30:30;;;;;;;3.20;2.90;;;29.40;55.10;;;;;;5093372;28;20493;-75
2021/07/22 12:33:00;;;;;;;4.07;3.38;;;29.50;55.00;;;;;;5093420;28;20443;-74
2021/07/22 12:35:38;;;;;;;4.05;3.75;;;29.60;54.60;;;;;;5080746;28;20523;-74
2021/07/22 12:38:10;;;;;;;3.95;3.55;;;29.60;54.30;;;;;;5075850;28;20031;-73
2021/07/22 12:40:37;;;;;;;5.43;3.88;;;29.50;54.00;;;;;;5088877;28;20504;-73
2021/07/22 12:43:05;;;;;;;3.53;3.08;;;29.60;53.80;;;;;;5091397;28;20020;-76
2021/07/22 12:45:31;;;;;;;4.57;3.67;;;29.70;53.80;;;;;;5092739;28;20032;-75
2021/07/22 12:47:56;;;;;;;3.80;3.40;;;30.00;53.60;;;;;;5093128;28;20024;-75
2021/07/22 12:50:45;;;;;;;4.18;2.67;;;30.10;53.20;;;;;;5092852;28;20054;-74
2021/07/22 12:53:20;;;;;;;3.83;3.50;;;30.20;53.30;;;;;;5092232;28;20035;-74
2021/07/22 12:56:05;;;;;;;;;;;;;;;;;;;;;
2021/07/22 12:58:37;;;;;;;3.85;3.47;;;30.20;53.20;;;;;;5091219;28;20038;-73
2021/07/22 13:01:08;;;;;;;4.32;3.70;;;30.30;52.90;;;;;;5085804;28;20427;-73